METAR AND TAF INFORMATION
METAR FOR FSIA
ADDS - METARS form results

(1519 UTC 22 February 2019)
Data provider http://aviationweather.gov/metar/data/
 
METAR text: FSIA 221500Z 26009KT 9999 -RA FEW010 FEW015CB BKN018 25/24 Q1010 RERA TEMPO 8000
Conditions at: FSIA (SEYCHELLES INTL , SC) observed 1500 UTC 22 February 2019
Temperature: 25.0°C (77°F)
Dewpoint: 24.0°C (75°F) [RH = 94%]
Pressure (altimeter): 29.82 inches Hg (1010.0 mb)
Winds: from the W (260 degrees) at 10 MPH (9 knots; 4.6 m/s)
Visibility: 6 or more miles (10+ km)
Ceiling: 1800 feet AGL
Clouds: few clouds at 1000 feet AGL
few clouds at 1500 feet AGL
broken clouds at 1800 feet AGL
Weather: -RA  (light rain)

METAR text: FSIA 221426Z 28009KT 260V320 5000 RA FEW010 FEW015CB BKN018 25/24 Q1010 BECMG FM1430 8000 -RA
Conditions at: FSIA (SEYCHELLES INTL , SC) observed 1426 UTC 22 February 2019
Temperature: 25.0°C (77°F)
Dewpoint: 24.0°C (75°F) [RH = 94%]
Pressure (altimeter): 29.82 inches Hg (1010.0 mb)
Winds: from the W (280 degrees) at 10 MPH (9 knots; 4.6 m/s)
Visibility: 3 miles ( 5 km)
Ceiling: 1800 feet AGL
Clouds: few clouds at 1000 feet AGL
few clouds at 1500 feet AGL
broken clouds at 1800 feet AGL
Weather: RA  (moderate rain)

METAR text: FSIA 221422Z 28010KT 3000 +RA FEW010 FEW015CB BKN018 25/25 Q1010 BECMG FM1425 5000 RA
Conditions at: FSIA (SEYCHELLES INTL , SC) observed 1422 UTC 22 February 2019
Temperature: 25.0°C (77°F)
Dewpoint: 25.0°C (77°F) [RH = 100%]
Pressure (altimeter): 29.82 inches Hg (1010.0 mb)
Winds: from the W (280 degrees) at 12 MPH (10 knots; 5.1 m/s)
Visibility: 1.86 miles (2.99 km)
Ceiling: 1800 feet AGL
Clouds: few clouds at 1000 feet AGL
few clouds at 1500 feet AGL
broken clouds at 1800 feet AGL
Weather: +RA  (heavy rain)

Forecast for: FSIA (SEYCHELLES INTL , SC)
Text: TAF FSIA 221103Z 2212/2312 35010KT 9999 SCT022
Forecast period: 1200 UTC 22 February 2019 to 1200 UTC 23 February 2019
Forecast type: FROM: standard forecast or significant change
Winds: from the N (350 degrees) at 12 MPH (10 knots; 5.1 m/s)
Visibility: 6 or more miles 10+ km)
Ceiling: at least 12,000 feet AGL
Clouds: scattered clouds at 2200 feet AGL
Weather: no significant weather forecast for this period
Text: TEMPO 2214/2218 -SHRA BKN018
Forecast period: 1400 to 1800 UTC 22 February 2019
Forecast type: TEMPORARY: The following changes expected for less than half the time period
Visibility: missing
Ceiling: 1800 feet AGL
Clouds: broken clouds at 1800 feet AGL
Weather: -SHRA  (light rain showers)

 AIRPORT MAP

 RUNWAY INFORMATION
Runway 13 Runway length 9800 ft Runway width 151 ft
Runway elevation 10 ft Runway displaced threshold 1000 ft Runway heading 125
Runway 31 Runway length 9800 ft Runway width 151 ft
Runway elevation 10 ft Runway displaced threshold 1000 ft Runway heading 305

 AIRPORT FREQUENCIES
Type APP Name APP Frequency 119.7 MHZ
Type TWR Name TWR Frequency 118.3 MHZ

 AIRPORT NEAR NAVIGATION AIDS
Type VOR-DME Name Seychelles Frequency 113100 KHZ
Type NDB Name Seychelles Frequency 373 KHZ



Powered by Virtual Airlines Manager [v2.6.2]